createdAt,value
2023-01-15T00:01:56.144Z,6.00
2023-01-15T00:04:22.843Z,6.10
2023-01-15T00:06:50.591Z,6.20
2023-01-15T00:09:17.334Z,7.60
2023-01-15T00:11:44.160Z,6.50
2023-01-15T00:14:12.440Z,6.50
2023-01-15T00:16:40.688Z,6.60
2023-01-15T00:19:10.875Z,6.60
2023-01-15T00:21:38.924Z,7.60
2023-01-15T00:24:24.331Z,6.70
2023-01-15T00:27:09.806Z,6.70
2023-01-15T00:29:36.496Z,6.70
2023-01-15T00:32:06.347Z,6.70
2023-01-15T00:34:33.891Z,6.70
2023-01-15T00:37:01.627Z,6.70
2023-01-15T00:39:28.611Z,6.70
2023-01-15T00:41:55.871Z,6.70
2023-01-15T00:44:22.998Z,6.70
2023-01-15T00:46:49.821Z,6.70
2023-01-15T00:49:17.482Z,6.70
2023-01-15T00:51:44.147Z,6.80
2023-01-15T00:54:11.063Z,6.80
2023-01-15T00:56:37.789Z,6.80
2023-01-15T00:59:05.361Z,6.80
2023-01-15T01:01:32.141Z,6.80
2023-01-15T01:03:59.005Z,6.80
2023-01-15T01:06:25.855Z,6.80
2023-01-15T01:08:52.610Z,6.80
2023-01-15T01:11:24.024Z,6.70
2023-01-15T01:13:50.613Z,6.70
2023-01-15T01:16:37.610Z,6.70
2023-01-15T01:19:11.321Z,6.60
2023-01-15T01:21:39.311Z,6.60
2023-01-15T01:24:06.800Z,6.60
2023-01-15T01:26:34.564Z,6.60
2023-01-15T01:29:01.302Z,6.60
2023-01-15T01:31:28.177Z,6.50
2023-01-15T01:33:57.241Z,6.50
2023-01-15T01:36:50.379Z,6.40
2023-01-15T01:39:19.080Z,6.40
2023-01-15T01:41:46.512Z,6.30
2023-01-15T01:44:32.252Z,6.30
2023-01-15T01:47:01.443Z,6.30
2023-01-15T01:49:28.355Z,6.30
2023-01-15T01:52:16.794Z,6.30
2023-01-15T01:54:46.539Z,6.30
2023-01-15T01:57:14.652Z,6.30
2023-01-15T01:59:41.473Z,6.30
2023-01-15T02:02:08.460Z,6.30
2023-01-15T02:04:37.410Z,6.30
2023-01-15T02:07:04.208Z,6.30
2023-01-15T02:09:31.362Z,6.30
2023-01-15T02:12:06.689Z,6.20
2023-01-15T02:14:37.290Z,6.20
2023-01-15T02:17:09.800Z,6.10
2023-01-15T02:19:50.729Z,6.10
2023-01-15T02:22:29.253Z,6.20
2023-01-15T02:25:22.835Z,6.20
2023-01-15T02:27:59.939Z,6.10
2023-01-15T02:30:37.805Z,6.10
2023-01-15T02:33:18.125Z,6.10
2023-01-15T02:36:06.629Z,6.10
2023-01-15T02:38:40.243Z,6.00
2023-01-15T02:41:16.350Z,6.00
2023-01-15T02:43:49.992Z,6.10
2023-01-15T02:46:18.904Z,6.10
2023-01-15T02:48:50.087Z,6.10
2023-01-15T02:51:21.633Z,6.10
2023-01-15T02:53:49.573Z,6.00
2023-01-15T02:56:20.087Z,5.90
2023-01-15T02:58:49.887Z,5.90
2023-01-15T03:01:25.021Z,5.80
2023-01-15T03:04:17.721Z,5.70
2023-01-15T03:07:15.917Z,5.60
2023-01-15T03:09:43.450Z,5.60
2023-01-15T03:12:24.744Z,5.60
2023-01-15T03:15:11.026Z,5.50
2023-01-15T03:17:53.808Z,5.50
2023-01-15T03:20:25.221Z,5.40
2023-01-15T03:22:54.028Z,5.40
2023-01-15T03:25:27.933Z,5.40
2023-01-15T03:27:59.582Z,5.40
2023-01-15T03:30:26.332Z,5.40
2023-01-15T03:32:54.676Z,5.40
2023-01-15T03:35:40.168Z,5.40
2023-01-15T03:38:06.962Z,5.40
2023-01-15T03:40:42.176Z,5.40
2023-01-15T03:43:33.379Z,5.40
2023-01-15T03:46:06.576Z,5.50
2023-01-15T03:48:49.036Z,5.50
2023-01-15T03:51:23.401Z,5.60
2023-01-15T03:53:55.032Z,5.60
2023-01-15T03:56:34.138Z,5.70
2023-01-15T03:59:19.931Z,5.70
2023-01-15T04:01:49.199Z,5.80
2023-01-15T04:04:16.918Z,5.80
2023-01-15T04:06:44.016Z,5.80
2023-01-15T04:09:13.403Z,5.90
2023-01-15T04:11:40.289Z,5.90
2023-01-15T04:14:07.211Z,5.90
2023-01-15T04:16:35.089Z,6.00
2023-01-15T04:19:02.050Z,6.00
2023-01-15T04:21:28.789Z,6.00
2023-01-15T04:23:55.467Z,6.10
2023-01-15T04:26:22.353Z,6.10
2023-01-15T04:28:49.420Z,6.10
2023-01-15T04:31:16.331Z,6.10
2023-01-15T04:33:43.091Z,6.10
2023-01-15T04:36:10.229Z,6.10
2023-01-15T04:38:38.385Z,6.10
2023-01-15T04:41:24.322Z,6.10
2023-01-15T04:44:09.397Z,6.10
2023-01-15T04:46:47.748Z,6.10
2023-01-15T04:49:16.889Z,6.10
2023-01-15T04:51:43.946Z,6.10
2023-01-15T04:54:13.223Z,6.20
2023-01-15T04:56:45.562Z,6.20
2023-01-15T04:59:13.491Z,6.20
2023-01-15T05:01:44.348Z,6.20
2023-01-15T05:04:15.654Z,6.20
2023-01-15T05:06:42.379Z,6.20
2023-01-15T05:09:09.138Z,6.20
2023-01-15T05:11:37.479Z,6.20
2023-01-15T05:14:05.627Z,6.20
2023-01-15T05:16:33.360Z,6.20
2023-01-15T05:19:02.512Z,6.20
2023-01-15T05:21:32.031Z,6.20
2023-01-15T05:24:00.647Z,6.20
2023-01-15T05:26:29.996Z,6.20
2023-01-15T05:28:58.415Z,6.20
2023-01-15T05:31:26.383Z,6.20
2023-01-15T05:33:54.416Z,6.20
2023-01-15T05:36:27.746Z,6.10
2023-01-15T05:38:55.634Z,6.10
2023-01-15T05:41:41.353Z,6.10
2023-01-15T05:44:10.561Z,6.20
2023-01-15T05:46:39.819Z,6.10
2023-01-15T05:49:09.451Z,6.20
2023-01-15T05:51:37.835Z,6.10
2023-01-15T05:54:06.375Z,6.20
2023-01-15T05:56:35.770Z,6.20
2023-01-15T05:59:02.520Z,6.30
2023-01-15T06:01:29.364Z,6.30
2023-01-15T06:04:02.020Z,6.30
2023-01-15T06:06:29.492Z,6.30
2023-01-15T06:08:56.125Z,6.30
2023-01-15T06:11:23.133Z,6.30
2023-01-15T06:13:50.026Z,6.30
2023-01-15T06:16:18.542Z,6.30
2023-01-15T06:18:45.589Z,6.30
2023-01-15T06:21:13.576Z,6.30
2023-01-15T06:23:41.313Z,6.40
2023-01-15T06:26:12.346Z,6.40
2023-01-15T06:28:39.393Z,6.30
2023-01-15T06:31:08.008Z,6.30
2023-01-15T06:33:35.125Z,6.30
2023-01-15T06:36:11.063Z,6.30
2023-01-15T06:38:38.569Z,6.40
2023-01-15T06:41:27.110Z,6.30
2023-01-15T06:44:12.580Z,6.30
2023-01-15T06:47:03.424Z,6.30
2023-01-15T06:49:31.230Z,6.30
2023-01-15T06:51:58.129Z,6.30
2023-01-15T06:54:24.899Z,6.30
2023-01-15T06:56:51.759Z,6.30
2023-01-15T06:59:19.140Z,6.30
2023-01-15T07:01:45.899Z,6.30
2023-01-15T07:04:12.858Z,6.30
2023-01-15T07:06:39.778Z,6.30
2023-01-15T07:09:06.779Z,6.20
2023-01-15T07:11:34.007Z,6.30
2023-01-15T07:14:06.458Z,6.30
2023-01-15T07:16:36.601Z,6.30
2023-01-15T07:19:04.250Z,6.40
2023-01-15T07:21:31.053Z,6.30
2023-01-15T07:24:01.298Z,6.30
2023-01-15T07:26:28.556Z,6.30
2023-01-15T07:28:55.224Z,6.30
2023-01-15T07:31:21.918Z,6.40
2023-01-15T07:33:48.601Z,6.30
2023-01-15T07:36:15.324Z,6.40
2023-01-15T07:38:42.113Z,6.30
2023-01-15T07:41:27.620Z,6.30
2023-01-15T07:44:12.932Z,6.30
2023-01-15T07:46:58.422Z,6.40
2023-01-15T07:49:43.829Z,6.40
2023-01-15T07:52:10.775Z,6.40
2023-01-15T07:54:37.433Z,6.40
2023-01-15T07:57:04.619Z,6.40
2023-01-15T07:59:31.330Z,6.40
2023-01-15T08:01:58.127Z,6.40
2023-01-15T08:04:24.967Z,6.40
2023-01-15T08:06:51.624Z,6.40
2023-01-15T08:09:18.263Z,6.40
2023-01-15T08:12:03.558Z,6.40
2023-01-15T08:14:48.786Z,6.50
2023-01-15T08:17:15.450Z,6.50
2023-01-15T08:19:42.134Z,6.50
2023-01-15T08:22:11.503Z,6.50
2023-01-15T08:24:38.413Z,6.50
2023-01-15T08:27:06.103Z,6.50
2023-01-15T08:29:33.104Z,6.50
2023-01-15T08:32:01.429Z,6.50
2023-01-15T08:34:29.370Z,6.60
2023-01-15T08:36:59.907Z,6.60
2023-01-15T08:39:27.815Z,6.60
2023-01-15T08:41:56.222Z,6.70
2023-01-15T08:44:23.699Z,6.70
2023-01-15T08:46:54.003Z,6.70
2023-01-15T08:49:21.555Z,6.70
2023-01-15T08:51:51.724Z,6.70
2023-01-15T08:54:20.563Z,6.70
2023-01-15T08:56:48.253Z,6.60
2023-01-15T08:59:15.035Z,6.60
2023-01-15T09:01:42.079Z,6.60
2023-01-15T09:04:13.616Z,6.60
2023-01-15T09:06:40.652Z,6.60
2023-01-15T09:09:07.400Z,6.60
2023-01-15T09:11:34.345Z,6.60
2023-01-15T09:14:00.989Z,6.50
2023-01-15T09:16:27.928Z,6.60
2023-01-15T09:18:54.772Z,6.60
2023-01-15T09:21:21.405Z,6.50
2023-01-15T09:23:48.329Z,6.60
2023-01-15T09:26:31.443Z,6.60
2023-01-15T09:28:59.453Z,6.50
2023-01-15T09:31:28.912Z,6.60
2023-01-15T09:33:55.744Z,6.60
2023-01-15T09:36:29.288Z,6.60
2023-01-15T09:38:57.235Z,6.60
2023-01-15T09:41:44.289Z,6.60
2023-01-15T09:44:29.289Z,6.60
2023-01-15T09:46:55.944Z,6.60
2023-01-15T09:49:26.204Z,6.60
2023-01-15T09:51:59.588Z,6.60
2023-01-15T09:54:43.371Z,6.60
2023-01-15T09:57:13.717Z,6.60
2023-01-15T09:59:44.387Z,6.60
2023-01-15T10:02:30.302Z,6.60
2023-01-15T10:05:09.088Z,6.50
2023-01-15T10:08:04.303Z,6.50
2023-01-15T10:10:40.975Z,6.50
2023-01-15T10:13:30.796Z,6.40
2023-01-15T10:15:58.551Z,6.40
2023-01-15T10:18:26.939Z,6.50
2023-01-15T10:21:07.509Z,6.40
2023-01-15T10:23:40.332Z,6.40
2023-01-15T10:26:34.707Z,6.50
2023-01-15T10:29:37.190Z,6.50
2023-01-15T10:32:19.160Z,6.50
2023-01-15T10:35:08.716Z,6.50
2023-01-15T10:37:58.857Z,6.50
2023-01-15T10:40:31.299Z,6.50
2023-01-15T10:43:19.742Z,6.50
2023-01-15T10:46:02.921Z,6.60
2023-01-15T10:48:42.698Z,6.60
2023-01-15T10:51:31.597Z,6.60
2023-01-15T10:54:35.173Z,6.60
2023-01-15T10:57:12.401Z,6.60
2023-01-15T10:59:59.142Z,6.70
2023-01-15T11:02:32.028Z,6.70
2023-01-15T11:04:58.907Z,6.70
2023-01-15T11:08:02.737Z,6.70
2023-01-15T11:10:27.185Z,6.70
2023-01-15T11:13:38.890Z,6.80
2023-01-15T11:16:24.762Z,6.80
2023-01-15T11:19:10.265Z,6.80
2023-01-15T11:21:42.386Z,6.90
2023-01-15T11:24:16.531Z,6.90
2023-01-15T11:26:48.688Z,6.90
2023-01-15T11:29:24.528Z,6.90
2023-01-15T11:31:51.194Z,6.90
2023-01-15T11:34:22.311Z,6.90
2023-01-15T11:36:49.606Z,6.90
2023-01-15T11:39:28.195Z,6.90
2023-01-15T11:42:22.168Z,6.90
2023-01-15T11:45:15.998Z,6.90
2023-01-15T11:48:11.969Z,6.90
2023-01-15T11:50:55.846Z,6.90
2023-01-15T11:53:29.383Z,7.00
2023-01-15T11:56:00.823Z,7.00
2023-01-15T11:58:39.143Z,7.00
2023-01-15T12:01:06.032Z,7.00
2023-01-15T12:03:36.242Z,6.90
2023-01-15T12:06:06.625Z,6.90
2023-01-15T12:08:51.958Z,6.90
2023-01-15T12:11:26.660Z,6.90
2023-01-15T12:13:56.564Z,6.90
2023-01-15T12:17:01.674Z,6.90
2023-01-15T12:19:37.715Z,6.90
2023-01-15T12:22:29.118Z,6.90
2023-01-15T12:25:12.994Z,6.90
2023-01-15T12:27:52.483Z,6.80
2023-01-15T12:30:25.218Z,6.80
2023-01-15T12:33:23.278Z,6.80
2023-01-15T12:36:01.070Z,6.70
2023-01-15T12:38:55.735Z,6.70
2023-01-15T12:42:01.559Z,6.70
2023-01-15T12:44:54.628Z,6.70
2023-01-15T12:47:42.907Z,6.60
2023-01-15T12:50:36.760Z,6.60
2023-01-15T12:53:50.316Z,6.50
2023-01-15T12:56:36.999Z,6.50
2023-01-15T12:59:26.783Z,6.50
2023-01-15T13:01:58.645Z,6.50
2023-01-15T13:04:50.290Z,6.50
2023-01-15T13:07:27.522Z,6.50
2023-01-15T13:10:07.027Z,6.50
2023-01-15T13:12:34.219Z,6.40
2023-01-15T13:15:06.673Z,6.40
2023-01-15T13:17:46.940Z,6.40
2023-01-15T13:20:29.439Z,6.40
2023-01-15T13:22:59.093Z,6.40
2023-01-15T13:25:31.924Z,6.40
2023-01-15T13:28:12.884Z,6.40
2023-01-15T13:31:04.225Z,6.40
2023-01-15T13:33:44.418Z,6.40
2023-01-15T13:36:11.139Z,6.40
2023-01-15T13:38:47.806Z,6.40
2023-01-15T13:41:59.665Z,6.40
2023-01-15T13:44:44.941Z,6.30
2023-01-15T13:47:17.554Z,6.30
2023-01-15T13:49:52.077Z,6.30
2023-01-15T13:52:28.931Z,6.30
2023-01-15T13:55:00.188Z,6.30
2023-01-15T13:57:40.381Z,6.30
2023-01-15T14:00:28.741Z,6.30
2023-01-15T14:02:59.106Z,6.20
2023-01-15T14:05:36.153Z,6.20
2023-01-15T14:08:16.174Z,6.20
2023-01-15T14:10:43.049Z,6.10
2023-01-15T14:13:37.845Z,6.10
2023-01-15T14:16:57.127Z,6.10
2023-01-15T14:19:57.553Z,6.00
2023-01-15T14:22:48.544Z,5.90
2023-01-15T14:25:41.718Z,5.90
2023-01-15T14:28:22.554Z,5.80
2023-01-15T14:30:56.971Z,5.80
2023-01-15T14:33:58.606Z,5.80
2023-01-15T14:36:29.379Z,5.80
2023-01-15T14:39:00.468Z,5.70
2023-01-15T14:41:57.293Z,5.70
2023-01-15T14:44:30.673Z,5.70
2023-01-15T14:47:04.214Z,5.60
2023-01-15T14:49:42.111Z,5.60
2023-01-15T14:52:09.374Z,5.60
2023-01-15T14:54:38.187Z,5.60
2023-01-15T14:57:08.284Z,5.50
2023-01-15T15:00:00.286Z,5.50
2023-01-15T15:02:43.847Z,5.50
2023-01-15T15:05:17.616Z,5.40
2023-01-15T15:07:48.438Z,5.40
2023-01-15T15:10:33.739Z,5.40
2023-01-15T15:13:16.374Z,5.30
2023-01-15T15:16:07.476Z,5.30
2023-01-15T15:18:48.822Z,5.20
2023-01-15T15:21:20.707Z,5.10
2023-01-15T15:23:59.687Z,5.10
2023-01-15T15:26:31.825Z,5.00
2023-01-15T15:29:04.270Z,5.00
2023-01-15T15:31:48.146Z,5.00
2023-01-15T15:34:32.864Z,4.90
2023-01-15T15:37:03.030Z,4.90
2023-01-15T15:39:45.524Z,4.80
2023-01-15T15:42:55.432Z,4.80
2023-01-15T15:45:46.873Z,4.70
2023-01-15T15:48:45.665Z,4.70
2023-01-15T15:51:32.958Z,4.60
2023-01-15T15:54:29.671Z,4.60
2023-01-15T15:57:09.620Z,4.50
2023-01-15T15:59:46.091Z,4.50
2023-01-15T16:02:25.476Z,4.50
2023-01-15T16:04:54.890Z,4.50
2023-01-15T16:07:33.791Z,4.50
2023-01-15T16:10:18.544Z,4.40
2023-01-15T16:12:49.383Z,4.40
2023-01-15T16:15:29.455Z,4.40
2023-01-15T16:17:57.759Z,4.50
2023-01-15T16:20:25.687Z,4.50
2023-01-15T16:22:56.884Z,4.50
2023-01-15T16:25:40.148Z,4.60
2023-01-15T16:28:07.610Z,4.60
2023-01-15T16:30:34.519Z,4.70
2023-01-15T16:33:05.573Z,4.70
2023-01-15T16:35:36.138Z,4.80
2023-01-15T16:38:04.307Z,4.80
2023-01-15T16:40:32.249Z,4.90
2023-01-15T16:43:04.282Z,5.00
2023-01-15T16:45:31.414Z,5.10
2023-01-15T16:48:03.008Z,5.20
2023-01-15T16:50:32.335Z,5.20
2023-01-15T16:53:01.975Z,5.30
2023-01-15T16:55:34.737Z,5.30
2023-01-15T16:58:13.312Z,5.30
2023-01-15T17:00:41.872Z,5.40
2023-01-15T17:03:29.968Z,5.50
2023-01-15T17:06:06.104Z,5.50
2023-01-15T17:08:38.823Z,5.50
2023-01-15T17:11:16.581Z,5.60
2023-01-15T17:13:43.247Z,5.60
2023-01-15T17:16:17.430Z,5.70
2023-01-15T17:18:44.231Z,5.70
2023-01-15T17:21:21.608Z,5.80
2023-01-15T17:23:49.083Z,5.80
2023-01-15T17:26:22.332Z,5.80
2023-01-15T17:28:49.502Z,5.80
2023-01-15T17:31:33.586Z,5.90
2023-01-15T17:34:02.195Z,5.90
2023-01-15T17:36:29.950Z,5.80
2023-01-15T17:38:57.106Z,5.80
2023-01-15T17:41:24.411Z,5.80
2023-01-15T17:43:51.857Z,5.80
2023-01-15T17:46:18.777Z,5.90
2023-01-15T17:48:45.460Z,5.90
2023-01-15T17:51:14.332Z,5.90
2023-01-15T17:53:41.256Z,5.80
2023-01-15T17:56:27.200Z,5.80
2023-01-15T17:59:29.424Z,5.80
2023-01-15T18:02:15.307Z,5.90
2023-01-15T18:05:05.819Z,5.90
2023-01-15T18:07:37.636Z,5.90
2023-01-15T18:10:05.361Z,5.90
2023-01-15T18:12:32.057Z,5.90
2023-01-15T18:14:58.791Z,5.90
2023-01-15T18:17:25.499Z,5.90
2023-01-15T18:19:52.783Z,5.90
2023-01-15T18:22:20.153Z,5.90
2023-01-15T18:24:46.978Z,5.90
2023-01-15T18:27:13.682Z,5.90
2023-01-15T18:29:40.486Z,5.90
2023-01-15T18:32:10.477Z,5.80
2023-01-15T18:34:37.609Z,5.80
2023-01-15T18:37:04.770Z,5.80
2023-01-15T18:39:31.607Z,5.80
2023-01-15T18:41:58.262Z,5.80
2023-01-15T18:44:44.535Z,5.70
2023-01-15T18:47:13.930Z,5.70
2023-01-15T18:49:42.528Z,5.60
2023-01-15T18:52:29.544Z,5.60
2023-01-15T18:54:56.568Z,5.60
2023-01-15T18:57:24.161Z,5.60
2023-01-15T18:59:51.657Z,5.60
2023-01-15T19:02:20.942Z,5.60
2023-01-15T19:04:48.167Z,5.60
2023-01-15T19:07:15.624Z,5.70
2023-01-15T19:09:42.389Z,5.70
2023-01-15T19:12:09.286Z,5.70
2023-01-15T19:14:54.858Z,5.70
2023-01-15T19:17:44.216Z,5.70
2023-01-15T19:20:15.541Z,5.70
2023-01-15T19:23:02.727Z,5.80
2023-01-15T19:25:36.809Z,5.80
2023-01-15T19:28:03.687Z,5.70
2023-01-15T19:30:32.097Z,5.80
2023-01-15T19:32:58.833Z,5.80
2023-01-15T19:35:25.536Z,5.80
2023-01-15T19:37:53.521Z,5.80
2023-01-15T19:40:23.535Z,5.80
2023-01-15T19:43:09.780Z,5.80
2023-01-15T19:45:58.801Z,5.80
2023-01-15T19:48:44.534Z,5.80
2023-01-15T19:51:11.178Z,5.80
2023-01-15T19:53:40.119Z,5.80
2023-01-15T19:56:07.939Z,5.80
2023-01-15T19:58:35.496Z,5.80
2023-01-15T20:01:02.973Z,5.80
2023-01-15T20:03:30.265Z,5.80
2023-01-15T20:05:57.645Z,5.80
2023-01-15T20:08:24.385Z,5.80
2023-01-15T20:10:51.660Z,5.80
2023-01-15T20:13:39.439Z,5.80
2023-01-15T20:16:15.368Z,5.80
2023-01-15T20:18:42.017Z,5.80
2023-01-15T20:21:12.174Z,5.80
2023-01-15T20:23:40.130Z,5.80
2023-01-15T20:26:12.815Z,5.80
2023-01-15T20:28:42.493Z,5.80
2023-01-15T20:31:17.494Z,5.80
2023-01-15T20:33:44.538Z,5.70
2023-01-15T20:36:11.246Z,5.70
2023-01-15T20:38:37.913Z,5.70
2023-01-15T20:41:28.079Z,5.70
2023-01-15T20:44:13.747Z,5.70
2023-01-15T20:46:40.557Z,5.70
2023-01-15T20:49:26.978Z,5.70
2023-01-15T20:51:54.843Z,5.70
2023-01-15T20:54:22.831Z,5.70
2023-01-15T20:56:49.543Z,5.70
2023-01-15T20:59:16.207Z,5.70
2023-01-15T21:01:43.267Z,5.60
2023-01-15T21:04:10.610Z,5.70
2023-01-15T21:06:37.347Z,5.60
2023-01-15T21:09:04.051Z,5.60
2023-01-15T21:11:30.702Z,5.50
2023-01-15T21:13:57.512Z,5.50
2023-01-15T21:16:24.230Z,5.40
2023-01-15T21:18:50.993Z,5.40
2023-01-15T21:21:19.200Z,5.40
2023-01-15T21:23:46.080Z,5.30
2023-01-15T21:26:13.955Z,5.30
2023-01-15T21:28:40.840Z,5.30
2023-01-15T21:31:09.116Z,5.30
2023-01-15T21:33:36.440Z,5.30
2023-01-15T21:36:08.213Z,5.30
2023-01-15T21:38:35.068Z,5.40
2023-01-15T21:41:13.745Z,5.40
2023-01-15T21:43:59.513Z,5.30
2023-01-15T21:46:27.864Z,5.40
2023-01-15T21:48:56.195Z,5.40
2023-01-15T21:51:23.723Z,5.40
2023-01-15T21:53:50.486Z,5.40
2023-01-15T21:56:17.195Z,5.40
2023-01-15T21:58:43.896Z,5.40
2023-01-15T22:01:12.231Z,5.40
2023-01-15T22:03:39.703Z,5.40
2023-01-15T22:06:07.823Z,5.50
2023-01-15T22:08:35.045Z,6.30
2023-01-15T22:11:03.804Z,5.40
2023-01-15T22:13:30.530Z,5.50
2023-01-15T22:15:57.185Z,5.50
2023-01-15T22:18:27.872Z,5.50
2023-01-15T22:21:02.883Z,5.60
2023-01-15T22:23:29.731Z,5.60
2023-01-15T22:25:56.699Z,5.60
2023-01-15T22:28:23.916Z,5.60
2023-01-15T22:30:50.634Z,5.60
2023-01-15T22:33:17.803Z,5.70
2023-01-15T22:35:44.460Z,5.70
2023-01-15T22:38:11.168Z,5.70
2023-01-15T22:40:37.840Z,5.70
2023-01-15T22:43:04.512Z,5.70
2023-01-15T22:45:31.145Z,5.80
2023-01-15T22:47:57.792Z,5.80
2023-01-15T22:50:24.433Z,5.80
2023-01-15T22:52:51.107Z,5.80
2023-01-15T22:55:17.754Z,5.80
2023-01-15T22:57:47.409Z,5.80
2023-01-15T23:00:14.548Z,5.80
2023-01-15T23:02:57.625Z,5.80
2023-01-15T23:05:24.791Z,5.80
2023-01-15T23:07:51.636Z,5.80
2023-01-15T23:10:18.609Z,5.70
2023-01-15T23:12:45.373Z,5.70
2023-01-15T23:15:13.954Z,5.70
2023-01-15T23:17:41.096Z,5.70
2023-01-15T23:20:10.011Z,5.70
2023-01-15T23:22:36.843Z,5.70
2023-01-15T23:25:03.888Z,5.60
2023-01-15T23:27:30.791Z,5.60
2023-01-15T23:29:57.550Z,5.60
2023-01-15T23:32:24.347Z,5.60
2023-01-15T23:34:51.134Z,5.60
2023-01-15T23:37:17.815Z,5.60
2023-01-15T23:39:44.584Z,5.60
2023-01-15T23:42:29.714Z,5.60
2023-01-15T23:45:15.161Z,5.70
2023-01-15T23:47:41.893Z,5.60
2023-01-15T23:50:09.087Z,5.60
2023-01-15T23:52:36.164Z,5.60
2023-01-15T23:55:02.950Z,5.60
2023-01-15T23:57:29.702Z,5.50
2023-01-15T23:59:56.569Z,5.50
